Time;durP1;ratioP1;P1;durP2;ratioP2;P2;SDS_P1;SDS_P2;PMS_P1;PMS_P2;Temp;Humidity;BMP_temperature;BMP_pressure;BME280_temperature;BME280_humidity;BME280_pressure;Samples;Min_cycle;Max_cycle;Signal;HPM_P1;HPM_P2
2024/01/13 00:01:35;;;;;;;70.35;26.10;;;-1.50;99.90;;;;;;4958732;28;20155;-65
2024/01/13 00:04:01;;;;;;;65.72;25.38;;;-1.40;99.90;;;;;;4958341;28;20427;-66
2024/01/13 00:06:26;;;;;;;65.50;25.35;;;-1.40;99.90;;;;;;4958442;29;20023;-65
2024/01/13 00:08:52;;;;;;;66.40;25.85;;;-1.40;99.90;;;;;;4958700;29;20027;-65
2024/01/13 00:11:18;;;;;;;66.57;24.55;;;-1.40;99.90;;;;;;4973681;28;20033;-65
2024/01/13 00:13:43;;;;;;;67.75;26.73;;;-1.40;99.90;;;;;;4958234;28;20039;-65
2024/01/13 00:16:09;;;;;;;65.50;24.90;;;-1.40;99.90;;;;;;4958780;28;20058;-65
2024/01/13 00:18:34;;;;;;;68.22;25.92;;;-1.50;99.90;;;;;;4958180;29;20059;-65
2024/01/13 00:21:00;;;;;;;70.40;26.38;;;-1.50;99.90;;;;;;4958521;28;20031;-65
2024/01/13 00:23:26;;;;;;;72.30;26.02;;;-1.40;99.90;;;;;;4973288;28;20027;-65
2024/01/13 00:25:51;;;;;;;64.80;26.50;;;-1.40;99.90;;;;;;4958646;29;20034;-65
2024/01/13 00:28:17;;;;;;;65.72;24.30;;;-1.50;99.90;;;;;;4957755;28;20123;-65
2024/01/13 00:30:43;;;;;;;65.07;25.90;;;-1.60;99.90;;;;;;4973263;28;20035;-65
2024/01/13 00:33:08;;;;;;;68.78;24.10;;;-1.50;99.90;;;;;;4957992;28;20023;-65
2024/01/13 00:35:34;;;;;;;68.47;26.75;;;-1.50;99.90;;;;;;4958091;29;20387;-65
2024/01/13 00:37:59;;;;;;;62.40;24.17;;;-1.60;99.90;;;;;;4958141;28;20030;-65
2024/01/13 00:40:25;;;;;;;68.65;25.38;;;-1.60;99.90;;;;;;4973367;28;20078;-65
2024/01/13 00:42:51;;;;;;;63.25;24.73;;;-1.60;99.90;;;;;;4940813;29;20078;-65
2024/01/13 00:45:16;;;;;;;64.32;24.27;;;-1.70;99.90;;;;;;4958011;29;20383;-65
2024/01/13 00:47:42;;;;;;;65.93;25.05;;;-1.70;99.90;;;;;;4958246;29;20411;-65
2024/01/13 00:50:08;;;;;;;73.25;23.95;;;-1.70;99.90;;;;;;4958616;29;20029;-65
2024/01/13 00:52:34;;;;;;;64.10;23.60;;;-1.70;99.90;;;;;;4957937;29;20031;-65
2024/01/13 00:55:00;;;;;;;59.10;22.05;;;-1.70;99.90;;;;;;4972945;28;20035;-65
2024/01/13 00:57:25;;;;;;;65.28;24.58;;;-1.70;99.90;;;;;;4958276;29;20035;-65
2024/01/13 00:59:51;;;;;;;59.33;23.33;;;-1.70;99.90;;;;;;4958028;29;20027;-66
2024/01/13 01:02:16;;;;;;;60.08;21.92;;;-1.10;99.90;;;;;;4972649;28;20055;-65
2024/01/13 01:04:42;;;;;;;62.47;23.65;;;-1.80;99.90;;;;;;4954307;28;20062;-65
2024/01/13 01:07:08;;;;;;;62.90;23.67;;;-1.80;99.90;;;;;;4921338;29;20050;-65
2024/01/13 01:09:33;;;;;;;63.95;22.00;;;-1.70;99.90;;;;;;4919569;29;20028;-65
2024/01/13 01:11:59;;;;;;;51.55;20.85;;;-1.90;99.90;;;;;;4919114;29;20033;-65
2024/01/13 01:14:25;;;;;;;56.42;21.00;;;-1.90;99.90;;;;;;4949973;29;20485;-65
2024/01/13 01:16:50;;;;;;;60.92;21.80;;;-1.90;99.90;;;;;;4919505;29;20024;-65
2024/01/13 01:19:16;;;;;;;50.55;19.17;;;-1.90;99.90;;;;;;4919453;29;20060;-65
2024/01/13 01:21:41;;;;;;;55.47;20.08;;;-1.90;99.90;;;;;;4919937;29;20180;-65
2024/01/13 01:24:07;;;;;;;54.15;20.13;;;-1.90;99.90;;;;;;4920141;29;20432;-65
2024/01/13 01:26:33;;;;;;;59.63;20.67;;;-1.90;99.90;;;;;;4953591;29;20064;-67
2024/01/13 01:28:58;;;;;;;53.38;20.80;;;-1.90;99.90;;;;;;4922741;29;20479;-66
2024/01/13 01:31:24;;;;;;;62.03;21.48;;;-2.00;99.90;;;;;;4921479;29;20108;-65
2024/01/13 01:33:50;;;;;;;50.63;19.30;;;-2.00;99.90;;;;;;4922945;29;20036;-72
2024/01/13 01:36:15;;;;;;;53.95;20.02;;;-1.70;99.90;;;;;;4922259;29;20032;-65
2024/01/13 01:38:41;;;;;;;56.33;18.85;;;-2.00;99.90;;;;;;4917742;29;20067;-65
2024/01/13 01:41:08;;;;;;;56.35;20.77;;;-1.90;99.90;;;;;;4918890;29;20034;-64
2024/01/13 01:43:33;;;;;;;57.20;21.02;;;-2.00;99.90;;;;;;4918800;29;20032;-65
2024/01/13 01:46:00;;;;;;;60.20;20.55;;;-2.00;99.90;;;;;;4918771;29;20039;-65
2024/01/13 01:48:34;;;;;;;50.75;19.15;;;-2.00;99.90;;;;;;4918696;29;20024;-65
2024/01/13 01:51:00;;;;;;;56.88;20.52;;;-1.80;99.90;;;;;;4918996;29;20532;-65
2024/01/13 01:53:26;;;;;;;55.25;18.48;;;-2.00;99.90;;;;;;4918906;29;20040;-64
2024/01/13 01:55:52;;;;;;;50.00;20.08;;;-2.00;99.90;;;;;;4918614;29;20063;-65
2024/01/13 01:58:20;;;;;;;51.25;18.58;;;-2.00;99.90;;;;;;4918985;29;20048;-65
2024/01/13 02:00:46;;;;;;;53.85;18.30;;;-2.00;99.90;;;;;;4918515;29;20047;-64
2024/01/13 02:03:12;;;;;;;50.88;19.20;;;-2.10;99.90;;;;;;4926949;28;20069;-65
2024/01/13 02:05:38;;;;;;;59.42;21.58;;;-2.10;99.90;;;;;;4956859;29;20102;-64
2024/01/13 02:08:04;;;;;;;54.88;22.65;;;-2.10;99.90;;;;;;4956510;28;20031;-64
2024/01/13 02:10:30;;;;;;;55.30;19.90;;;-2.10;99.90;;;;;;4971245;28;20174;-65
2024/01/13 02:12:55;;;;;;;66.47;21.23;;;-2.10;99.90;;;;;;4956174;29;20075;-64
2024/01/13 02:15:21;;;;;;;55.17;20.63;;;-2.20;99.90;;;;;;4971071;28;20494;-64
2024/01/13 02:17:47;;;;;;;58.95;20.52;;;-2.20;99.90;;;;;;4956347;28;20030;-64
2024/01/13 02:20:12;;;;;;;60.22;21.13;;;-2.20;99.90;;;;;;4956272;29;20034;-64
2024/01/13 02:22:38;;;;;;;54.80;20.13;;;-2.20;99.90;;;;;;4971168;28;20027;-64
2024/01/13 02:25:05;;;;;;;61.38;20.45;;;-2.30;99.90;;;;;;4956202;29;20066;-64
2024/01/13 02:27:30;;;;;;;57.30;19.15;;;-2.30;99.90;;;;;;4956173;29;20082;-64
2024/01/13 02:29:56;;;;;;;55.20;19.73;;;-2.30;99.90;;;;;;4956155;28;20027;-64
2024/01/13 02:32:22;;;;;;;55.58;20.45;;;-2.20;99.90;;;;;;4938543;29;20050;-65
2024/01/13 02:34:47;;;;;;;59.17;19.05;;;-2.30;99.90;;;;;;4956056;29;20118;-64
2024/01/13 02:37:13;;;;;;;54.72;19.70;;;-2.40;99.90;;;;;;4956024;29;20459;-64
2024/01/13 02:39:39;;;;;;;58.47;19.85;;;-2.40;99.90;;;;;;4956487;29;20519;-64
2024/01/13 02:42:05;;;;;;;56.40;19.38;;;-2.40;99.90;;;;;;4970758;28;20123;-64
2024/01/13 02:44:30;;;;;;;61.00;20.55;;;-2.30;99.90;;;;;;4955772;28;20086;-64
2024/01/13 02:46:56;;;;;;;57.15;21.45;;;-2.30;99.90;;;;;;4955964;29;20114;-63
2024/01/13 02:49:22;;;;;;;62.55;20.98;;;-2.40;99.90;;;;;;4955691;28;20106;-64
2024/01/13 02:51:48;;;;;;;54.08;18.45;;;-2.30;99.90;;;;;;4955681;29;20020;-64
2024/01/13 02:54:13;;;;;;;55.33;20.38;;;-2.30;99.90;;;;;;4955712;29;20039;-64
2024/01/13 02:56:39;;;;;;;63.70;21.65;;;-2.40;99.90;;;;;;4955869;29;20115;-63
2024/01/13 02:59:06;;;;;;;68.85;23.27;;;-2.40;99.90;;;;;;4955871;29;20024;-64
2024/01/13 03:01:33;;;;;;;65.53;22.50;;;-2.00;99.90;;;;;;4970337;28;20024;-64
2024/01/13 03:03:59;;;;;;;72.38;22.05;;;-2.40;99.90;;;;;;4960707;28;20072;-70
2024/01/13 03:06:25;;;;;;;59.65;21.38;;;-2.30;99.90;;;;;;4917987;29;20035;-64
2024/01/13 03:08:52;;;;;;;70.40;23.50;;;-2.30;99.90;;;;;;4917608;29;20028;-64
2024/01/13 03:11:18;;;;;;;70.00;24.55;;;-2.00;99.90;;;;;;4916646;29;20119;-65
2024/01/13 03:13:44;;;;;;;62.28;24.05;;;-2.30;99.90;;;;;;4917524;29;20111;-64
2024/01/13 03:16:10;;;;;;;75.20;24.35;;;-2.30;99.90;;;;;;4917532;29;20036;-65
2024/01/13 03:18:36;;;;;;;67.63;24.33;;;-1.70;99.90;;;;;;4917562;29;20040;-64
2024/01/13 03:21:03;;;;;;;66.63;23.52;;;-2.20;99.90;;;;;;4917490;29;20374;-65
2024/01/13 03:23:29;;;;;;;66.57;22.77;;;-2.30;99.90;;;;;;4917735;29;20035;-65
2024/01/13 03:25:55;;;;;;;71.20;23.63;;;-2.20;99.90;;;;;;4917183;29;20032;-64
2024/01/13 03:28:24;;;;;;;68.97;24.80;;;-2.30;99.90;;;;;;4917357;29;20051;-64
2024/01/13 03:30:51;;;;;;;68.45;23.85;;;-2.20;99.90;;;;;;4917379;29;20024;-64
2024/01/13 03:33:17;;;;;;;68.15;23.17;;;-2.20;99.90;;;;;;4916110;29;20042;-65
2024/01/13 03:35:43;;;;;;;68.25;23.35;;;-2.10;99.90;;;;;;4918167;29;20032;-65
2024/01/13 03:38:09;;;;;;;69.72;25.00;;;-2.20;99.90;;;;;;4917866;29;20039;-65
2024/01/13 03:40:34;;;;;;;68.07;25.55;;;-2.00;99.90;;;;;;4916151;29;20520;-64
2024/01/13 03:43:00;;;;;;;77.05;23.83;;;-2.20;99.90;;;;;;4917566;29;20035;-65
2024/01/13 03:45:25;;;;;;;73.55;24.92;;;-2.20;99.90;;;;;;4917866;29;20051;-64
2024/01/13 03:47:51;;;;;;;76.60;23.25;;;-2.20;99.90;;;;;;4917302;29;20107;-65
2024/01/13 03:50:17;;;;;;;77.13;25.25;;;-2.20;99.90;;;;;;4917313;29;20456;-64
2024/01/13 03:52:43;;;;;;;69.80;24.20;;;-2.20;99.90;;;;;;4917196;29;20028;-65
2024/01/13 03:55:08;;;;;;;74.88;25.48;;;-2.20;99.90;;;;;;4917193;29;20036;-64
2024/01/13 03:57:34;;;;;;;68.05;23.13;;;-2.20;99.90;;;;;;4917136;29;20032;-64
2024/01/13 03:59:59;;;;;;;68.75;23.90;;;-2.20;99.90;;;;;;4917706;29;20032;-65
2024/01/13 04:02:27;;;;;;;66.68;23.77;;;-2.10;99.90;;;;;;4918587;29;20114;-65
2024/01/13 04:04:52;;;;;;;66.40;24.40;;;-2.20;99.90;;;;;;4919731;29;20056;-64
2024/01/13 04:07:19;;;;;;;64.97;23.67;;;-2.20;99.90;;;;;;4920713;29;20556;-64
2024/01/13 04:09:45;;;;;;;59.67;20.50;;;-2.20;99.90;;;;;;4920580;29;20036;-65
2024/01/13 04:12:11;;;;;;;75.10;23.63;;;-2.10;99.90;;;;;;4921352;29;20032;-65
2024/01/13 04:14:36;;;;;;;63.17;20.38;;;-2.20;99.90;;;;;;4921196;29;20032;-65
2024/01/13 04:17:02;;;;;;;69.57;21.92;;;-2.20;99.90;;;;;;4920963;29;20043;-64
2024/01/13 04:19:28;;;;;;;63.03;23.50;;;-2.20;99.90;;;;;;4920615;29;20024;-65
2024/01/13 04:21:53;;;;;;;68.72;22.27;;;-2.20;99.90;;;;;;4920554;29;20039;-64
2024/01/13 04:24:19;;;;;;;66.43;22.45;;;-2.20;99.90;;;;;;4920213;29;20388;-65
2024/01/13 04:26:44;;;;;;;69.35;22.05;;;-2.20;99.90;;;;;;4920152;29;20083;-64
2024/01/13 04:29:10;;;;;;;70.22;23.35;;;-2.20;99.90;;;;;;4920183;29;20056;-64
2024/01/13 04:31:36;;;;;;;59.78;20.83;;;-2.20;99.90;;;;;;4920031;29;20075;-65
2024/01/13 04:34:01;;;;;;;62.70;22.42;;;-2.30;99.90;;;;;;4920029;29;20491;-64
2024/01/13 04:36:27;;;;;;;63.10;22.85;;;-1.60;99.90;;;;;;4919868;29;20032;-64
2024/01/13 04:38:54;;;;;;;64.68;23.17;;;-2.10;99.90;;;;;;4920130;29;20028;-64
2024/01/13 04:41:20;;;;;;;60.13;22.25;;;-2.10;99.90;;;;;;4920518;29;20027;-64
2024/01/13 04:43:45;;;;;;;72.75;21.85;;;-2.20;99.90;;;;;;4919722;29;20396;-64
2024/01/13 04:46:11;;;;;;;64.53;21.00;;;-2.20;99.90;;;;;;4950456;29;20186;-64
2024/01/13 04:48:37;;;;;;;68.22;22.00;;;-2.20;99.90;;;;;;4919956;29;20119;-64
2024/01/13 04:51:03;;;;;;;63.47;21.30;;;-2.30;99.90;;;;;;4919049;29;20452;-64
2024/01/13 04:53:29;;;;;;;53.15;20.20;;;-2.20;99.90;;;;;;4918883;29;20417;-64
2024/01/13 04:55:56;;;;;;;55.88;20.05;;;-2.20;99.90;;;;;;4919989;29;20042;-65
2024/01/13 04:58:22;;;;;;;54.63;19.02;;;-2.20;99.90;;;;;;4918435;29;20024;-65
2024/01/13 05:00:47;;;;;;;52.25;18.50;;;-2.20;99.90;;;;;;4921558;29;20055;-65
2024/01/13 05:03:13;;;;;;;61.45;20.10;;;-2.20;99.90;;;;;;4950970;28;20083;-64
2024/01/13 05:05:39;;;;;;;55.85;19.42;;;-2.20;99.90;;;;;;4920258;29;20032;-64
2024/01/13 05:08:04;;;;;;;57.78;21.45;;;-2.20;99.90;;;;;;4920361;29;20043;-64
2024/01/13 05:10:30;;;;;;;51.50;18.83;;;-2.20;99.90;;;;;;4918376;29;20456;-65
2024/01/13 05:12:56;;;;;;;53.25;20.33;;;-1.90;99.90;;;;;;4919008;29;20028;-65
2024/01/13 05:15:22;;;;;;;45.95;16.55;;;-2.20;99.90;;;;;;4919275;29;20484;-64
2024/01/13 05:17:47;;;;;;;54.83;19.70;;;-1.20;99.90;;;;;;4919337;29;20028;-64
2024/01/13 05:20:13;;;;;;;50.47;18.92;;;-2.20;99.90;;;;;;4919017;29;20028;-64
2024/01/13 05:22:39;;;;;;;59.67;19.30;;;-2.20;99.90;;;;;;4919770;29;20107;-65
2024/01/13 05:25:05;;;;;;;51.53;16.33;;;-2.20;99.90;;;;;;4919244;29;20447;-64
2024/01/13 05:27:31;;;;;;;48.33;16.38;;;-2.20;99.90;;;;;;4918926;29;20028;-64
2024/01/13 05:29:57;;;;;;;45.67;16.55;;;-2.20;99.90;;;;;;4919142;29;20028;-64
2024/01/13 05:32:22;;;;;;;48.70;17.75;;;-2.20;99.90;;;;;;4919098;29;20468;-65
2024/01/13 05:34:48;;;;;;;37.67;15.80;;;-2.20;99.90;;;;;;4919085;29;20066;-64
2024/01/13 05:37:14;;;;;;;43.70;15.07;;;-2.20;99.90;;;;;;4919157;29;20449;-64
2024/01/13 05:39:39;;;;;;;46.15;15.65;;;-1.10;99.90;;;;;;4917666;29;20035;-64
2024/01/13 05:42:07;;;;;;;35.42;13.93;;;-2.00;99.90;;;;;;4918624;29;20038;-64
2024/01/13 05:44:32;;;;;;;40.38;14.30;;;-2.30;99.90;;;;;;4918848;29;20032;-64
2024/01/13 05:46:58;;;;;;;39.47;14.43;;;-2.20;99.90;;;;;;4918746;29;20087;-64
2024/01/13 05:49:24;;;;;;;41.60;14.77;;;-2.00;99.90;;;;;;4918398;29;20088;-64
2024/01/13 05:51:49;;;;;;;45.28;15.18;;;-2.20;99.90;;;;;;4918975;29;20024;-64
2024/01/13 05:54:15;;;;;;;41.17;14.70;;;-2.20;99.90;;;;;;4918571;29;20207;-64
2024/01/13 05:56:41;;;;;;;41.72;14.25;;;-2.20;99.90;;;;;;4918624;29;20036;-65
2024/01/13 05:59:07;;;;;;;42.40;15.38;;;-2.20;99.90;;;;;;4918605;29;20024;-65
2024/01/13 06:01:32;;;;;;;42.72;15.07;;;-2.20;99.90;;;;;;4917580;29;20119;-64
2024/01/13 06:03:58;;;;;;;37.97;14.50;;;-2.20;99.90;;;;;;4938590;28;20109;-64
2024/01/13 06:06:24;;;;;;;44.08;14.98;;;-2.20;99.90;;;;;;4956632;29;20371;-65
2024/01/13 06:08:50;;;;;;;37.70;14.57;;;-2.20;99.90;;;;;;4956233;28;20035;-64
2024/01/13 06:11:15;;;;;;;38.63;13.73;;;-2.20;99.90;;;;;;4971287;28;20058;-64
2024/01/13 06:13:41;;;;;;;37.42;13.80;;;-2.20;99.90;;;;;;4956610;29;20023;-64
2024/01/13 06:16:08;;;;;;;47.17;14.07;;;-2.20;99.90;;;;;;4956288;29;20038;-64
2024/01/13 06:18:34;;;;;;;33.28;13.05;;;-2.20;99.90;;;;;;4956323;29;20023;-64
2024/01/13 06:21:01;;;;;;;33.38;12.25;;;-2.20;99.90;;;;;;4956621;28;20443;-64
2024/01/13 06:23:26;;;;;;;34.17;13.52;;;-2.20;99.90;;;;;;4956511;29;20451;-64
2024/01/13 06:25:52;;;;;;;34.78;13.55;;;-2.20;99.90;;;;;;4955295;28;20038;-64
2024/01/13 06:28:18;;;;;;;41.80;14.20;;;-2.20;99.90;;;;;;4939012;29;20035;-65
2024/01/13 06:30:44;;;;;;;41.38;13.77;;;-2.20;99.90;;;;;;4970974;28;20423;-64
2024/01/13 06:33:09;;;;;;;36.72;13.65;;;-2.20;99.90;;;;;;4956130;29;20086;-63
2024/01/13 06:35:35;;;;;;;33.67;11.63;;;-2.20;99.90;;;;;;4956050;29;20039;-64
2024/01/13 06:38:01;;;;;;;37.95;13.68;;;-2.20;99.90;;;;;;4956071;29;20089;-64
2024/01/13 06:40:26;;;;;;;30.77;11.90;;;-2.20;99.90;;;;;;4956340;29;20063;-66
2024/01/13 06:42:52;;;;;;;36.42;12.60;;;-2.20;99.90;;;;;;4956158;29;20027;-64
2024/01/13 06:45:17;;;;;;;40.05;12.63;;;-2.20;99.90;;;;;;4955741;29;20039;-64
2024/01/13 06:47:43;;;;;;;40.33;13.82;;;-2.20;99.90;;;;;;4970728;28;20028;-64
2024/01/13 06:50:09;;;;;;;37.08;13.48;;;-2.20;99.90;;;;;;4970776;28;20034;-65
2024/01/13 06:52:34;;;;;;;40.38;14.15;;;-2.00;99.90;;;;;;4970945;28;20034;-64
2024/01/13 06:55:02;;;;;;;35.58;13.80;;;;;;;;;;4955831;28;20110;-64
2024/01/13 06:57:27;;;;;;;42.63;14.65;;;-2.20;99.90;;;;;;4957459;29;20027;-64
2024/01/13 06:59:53;;;;;;;36.95;14.73;;;-2.20;99.90;;;;;;4956889;29;20423;-66
2024/01/13 07:02:19;;;;;;;39.90;14.75;;;-1.80;99.90;;;;;;4938727;29;20373;-63
2024/01/13 07:04:45;;;;;;;41.65;14.88;;;-2.20;99.90;;;;;;4938532;29;20089;-64
2024/01/13 07:07:11;;;;;;;46.53;15.73;;;-2.20;99.90;;;;;;4956161;29;20034;-64
2024/01/13 07:09:37;;;;;;;43.92;15.52;;;-2.20;99.90;;;;;;4955767;29;20106;-69
2024/01/13 07:12:02;;;;;;;46.88;15.63;;;-2.20;99.90;;;;;;4955867;29;20031;-64
2024/01/13 07:14:30;;;;;;;42.20;15.05;;;-2.20;99.90;;;;;;4955774;29;20034;-65
2024/01/13 07:16:56;;;;;;;37.83;14.82;;;-2.10;99.90;;;;;;4955671;29;20055;-67
2024/01/13 07:19:22;;;;;;;46.33;15.93;;;-2.00;99.90;;;;;;4955616;28;20058;-66
2024/01/13 07:21:47;;;;;;;42.65;15.07;;;-1.90;99.90;;;;;;4955641;29;20034;-64
2024/01/13 07:24:13;;;;;;;39.38;14.68;;;-1.90;99.90;;;;;;4955650;29;20027;-64
2024/01/13 07:26:39;;;;;;;40.42;14.25;;;-2.00;99.90;;;;;;4955515;29;20031;-64
2024/01/13 07:29:05;;;;;;;37.70;14.77;;;-2.00;99.90;;;;;;4955742;28;20042;-63
2024/01/13 07:31:31;;;;;;;42.13;15.57;;;-1.80;99.90;;;;;;4956027;29;20023;-64
2024/01/13 07:33:56;;;;;;;44.33;15.65;;;-2.10;99.90;;;;;;4938497;29;20516;-64
2024/01/13 07:36:22;;;;;;;44.42;17.23;;;-2.10;99.90;;;;;;4956731;28;20031;-63
2024/01/13 07:38:48;;;;;;;42.17;16.10;;;-2.10;99.90;;;;;;4959190;29;20444;-64
2024/01/13 07:41:13;;;;;;;43.67;14.93;;;-2.10;99.90;;;;;;4973995;28;20452;-63
2024/01/13 07:43:39;;;;;;;47.25;15.90;;;-2.10;99.90;;;;;;4958826;28;20027;-64
2024/01/13 07:46:05;;;;;;;42.65;16.60;;;-2.00;99.90;;;;;;4941876;29;20031;-64
2024/01/13 07:48:30;;;;;;;48.17;16.63;;;-2.10;99.90;;;;;;4959110;29;20028;-64
2024/01/13 07:50:56;;;;;;;45.95;15.85;;;-2.10;99.90;;;;;;4961444;28;20026;-64
2024/01/13 07:53:22;;;;;;;44.05;16.65;;;-2.10;99.90;;;;;;4978165;28;20033;-63
2024/01/13 07:55:47;;;;;;;54.42;16.75;;;-1.60;99.90;;;;;;4978252;28;20033;-64
2024/01/13 07:58:13;;;;;;;43.58;15.48;;;-2.00;99.90;;;;;;4978557;28;20035;-64
2024/01/13 08:00:39;;;;;;;49.30;15.80;;;-2.10;99.90;;;;;;4978478;28;20029;-64
2024/01/13 08:03:04;;;;;;;40.25;15.68;;;-2.00;99.90;;;;;;4978200;28;20118;-65
2024/01/13 08:05:31;;;;;;;43.40;15.10;;;-2.00;99.90;;;;;;4961021;28;20027;-65
2024/01/13 08:07:57;;;;;;;48.17;16.00;;;-2.00;99.90;;;;;;4978352;28;20487;-64
2024/01/13 08:10:23;;;;;;;41.05;14.20;;;-2.00;99.90;;;;;;4961411;28;20030;-64
2024/01/13 08:12:48;;;;;;;41.38;14.93;;;-1.70;99.90;;;;;;4978943;28;20033;-67
2024/01/13 08:15:14;;;;;;;45.80;16.85;;;-1.90;99.90;;;;;;4979685;28;20042;-64
2024/01/13 08:17:40;;;;;;;50.17;17.33;;;-1.90;99.90;;;;;;4962490;28;20176;-64
2024/01/13 08:20:06;;;;;;;41.60;14.73;;;-1.80;99.90;;;;;;4960543;28;20035;-63
2024/01/13 08:22:32;;;;;;;41.95;15.90;;;-1.80;99.90;;;;;;4977956;28;20085;-63
2024/01/13 08:24:58;;;;;;;47.15;15.90;;;-1.80;99.90;;;;;;4960469;28;20035;-64
2024/01/13 08:27:25;;;;;;;46.92;16.23;;;-1.80;99.90;;;;;;4977953;28;20093;-64
2024/01/13 08:29:50;;;;;;;45.20;15.80;;;-1.70;99.90;;;;;;4977691;28;20027;-64
2024/01/13 08:32:16;;;;;;;46.22;15.43;;;-1.70;99.90;;;;;;4959955;28;20041;-65
2024/01/13 08:34:41;;;;;;;44.92;16.40;;;-1.70;99.90;;;;;;4977249;28;20027;-65
2024/01/13 08:37:07;;;;;;;45.05;16.65;;;-1.70;99.90;;;;;;4960180;28;20458;-65
2024/01/13 08:39:33;;;;;;;47.70;18.00;;;-1.60;99.90;;;;;;4977232;28;20360;-64
2024/01/13 08:41:59;;;;;;;44.53;16.33;;;-1.70;99.90;;;;;;4977113;28;20467;-63
2024/01/13 08:44:25;;;;;;;45.85;15.63;;;-1.70;99.90;;;;;;4960072;28;20042;-64
2024/01/13 08:46:50;;;;;;;43.92;14.50;;;-1.70;99.90;;;;;;4977406;28;20038;-64
2024/01/13 08:49:16;;;;;;;39.38;14.32;;;-1.40;99.90;;;;;;4977272;28;20023;-63
2024/01/13 08:51:42;;;;;;;48.05;16.45;;;-1.60;99.90;;;;;;4977511;28;20023;-73
2024/01/13 08:54:08;;;;;;;33.40;13.35;;;-1.60;99.90;;;;;;4977217;28;20035;-58
2024/01/13 08:56:34;;;;;;;43.08;16.38;;;-1.20;99.90;;;;;;4959785;28;20133;-57
2024/01/13 08:59:01;;;;;;;40.53;14.65;;;-0.70;99.90;;;;;;4977376;28;20030;-60
2024/01/13 09:01:27;;;;;;;42.88;15.80;;;-0.40;99.90;;;;;;4976454;28;20035;-63
2024/01/13 09:03:53;;;;;;;39.53;16.35;;;-0.30;99.90;;;;;;4959365;28;20050;-66
2024/01/13 09:06:18;;;;;;;45.50;16.73;;;-0.60;99.90;;;;;;4977081;28;20034;-63
2024/01/13 09:08:44;;;;;;;44.08;15.13;;;-1.00;99.90;;;;;;4959636;28;20459;-58
2024/01/13 09:11:09;;;;;;;48.22;16.50;;;-1.00;99.90;;;;;;4976584;28;20031;-65
2024/01/13 09:13:35;;;;;;;45.53;16.25;;;-1.20;99.90;;;;;;4976866;28;20030;-65
2024/01/13 09:16:01;;;;;;;42.63;16.35;;;-1.30;99.90;;;;;;4976716;28;20039;-66
2024/01/13 09:18:26;;;;;;;51.35;17.23;;;-1.40;99.90;;;;;;4959238;28;20074;-63
2024/01/13 09:20:52;;;;;;;49.95;16.80;;;-1.30;99.90;;;;;;4959527;28;20106;-63
2024/01/13 09:23:18;;;;;;;45.85;17.35;;;-1.30;99.90;;;;;;4959322;28;20383;-63
2024/01/13 09:25:43;;;;;;;49.80;17.23;;;-1.40;99.90;;;;;;4976809;28;20031;-63
2024/01/13 09:28:09;;;;;;;48.30;18.38;;;-1.40;99.90;;;;;;4976578;28;20027;-64
2024/01/13 09:30:36;;;;;;;47.05;17.73;;;-1.40;99.90;;;;;;4976525;28;20489;-63
2024/01/13 09:33:02;;;;;;;46.28;17.52;;;-1.20;99.90;;;;;;4976579;28;20157;-64
2024/01/13 09:35:31;;;;;;;45.05;14.40;;;-1.40;99.90;;;;;;4976476;28;20113;-63
2024/01/13 09:37:58;;;;;;;53.88;18.90;;;-1.40;99.90;;;;;;4976484;28;20026;-64
2024/01/13 09:40:25;;;;;;;46.58;16.05;;;-1.40;99.90;;;;;;4976258;28;20026;-64
2024/01/13 09:43:31;;;;;;;48.15;16.30;;;-1.30;99.90;;;;;;4958839;28;20161;-64
2024/01/13 09:45:57;;;;;;;50.10;15.95;;;-1.30;99.90;;;;;;4976001;28;20045;-64
2024/01/13 09:48:23;;;;;;;49.88;16.65;;;-1.20;99.90;;;;;;4976348;28;20467;-64
2024/01/13 09:50:52;;;;;;;60.33;20.65;;;-1.10;99.90;;;;;;4976213;28;20471;-64
2024/01/13 09:53:42;;;;;;;51.50;18.42;;;-1.20;99.90;;;;;;4959178;28;20030;-64
2024/01/13 09:56:14;;;;;;;57.33;18.65;;;-1.00;99.90;;;;;;4975780;28;20418;-65
2024/01/13 09:58:39;;;;;;;48.80;16.50;;;-0.70;99.90;;;;;;4976179;28;20173;-65
2024/01/13 10:01:07;;;;;;;49.97;18.25;;;-0.60;99.90;;;;;;4974819;28;20101;-65
2024/01/13 10:03:33;;;;;;;50.00;17.63;;;-0.50;99.90;;;;;;4958333;28;20078;-65
2024/01/13 10:05:59;;;;;;;49.38;17.75;;;-0.10;99.90;;;;;;4976104;28;20034;-65
2024/01/13 10:08:32;;;;;;;48.28;17.90;;;0.00;99.90;;;;;;4975957;28;20022;-65
2024/01/13 10:11:00;;;;;;;47.15;17.27;;;0.00;99.90;;;;;;4976277;28;20027;-65
2024/01/13 10:13:26;;;;;;;48.05;17.40;;;0.10;99.90;;;;;;4976163;28;20027;-68
2024/01/13 10:15:52;;;;;;;49.70;18.13;;;0.10;99.90;;;;;;4958635;28;20061;-65
2024/01/13 10:18:20;;;;;;;46.03;16.90;;;0.40;99.90;;;;;;4958830;28;20027;-65
2024/01/13 10:20:46;;;;;;;44.38;16.45;;;0.10;99.90;;;;;;4975613;28;20027;-66
2024/01/13 10:23:11;;;;;;;48.20;17.40;;;0.10;99.90;;;;;;4975786;28;20019;-65
2024/01/13 10:25:37;;;;;;;43.10;16.63;;;0.40;99.90;;;;;;4975616;28;20418;-65
2024/01/13 10:28:03;;;;;;;44.97;16.02;;;0.60;99.90;;;;;;4975602;28;20085;-66
2024/01/13 10:30:30;;;;;;;41.38;16.80;;;0.90;99.90;;;;;;4975561;28;20366;-66
2024/01/13 10:32:59;;;;;;;43.97;15.95;;;1.10;99.90;;;;;;4958081;28;20109;-66
2024/01/13 10:35:26;;;;;;;50.30;17.60;;;1.00;99.90;;;;;;4958130;28;20117;-66
2024/01/13 10:37:51;;;;;;;58.83;17.80;;;0.80;99.90;;;;;;4975430;28;20450;-66
2024/01/13 10:40:17;;;;;;;42.35;16.58;;;0.50;99.90;;;;;;4958278;28;20058;-66
2024/01/13 10:42:48;;;;;;;50.75;16.55;;;0.40;99.90;;;;;;4975335;28;20074;-66
2024/01/13 10:45:21;;;;;;;45.88;16.92;;;0.30;99.90;;;;;;4958015;28;20031;-66
2024/01/13 10:47:53;;;;;;;50.45;16.35;;;0.40;99.90;;;;;;4974977;28;20035;-66
2024/01/13 10:50:20;;;;;;;46.72;16.50;;;0.50;99.90;;;;;;4957929;28;20030;-66
2024/01/13 10:52:57;;;;;;;44.78;16.55;;;0.90;99.90;;;;;;4975200;28;20082;-66
2024/01/13 10:55:24;;;;;;;44.85;15.30;;;1.20;99.90;;;;;;4975165;28;20027;-66
2024/01/13 10:57:51;;;;;;;49.60;17.75;;;1.60;99.90;;;;;;4958071;28;20031;-66
2024/01/13 11:00:18;;;;;;;46.75;17.33;;;1.80;99.90;;;;;;4957824;28;20027;-66
2024/01/13 11:02:45;;;;;;;49.03;17.85;;;1.90;99.90;;;;;;4974920;28;20374;-66
2024/01/13 11:05:14;;;;;;;50.35;16.73;;;1.90;99.90;;;;;;4975159;28;20034;-66
2024/01/13 11:07:40;;;;;;;46.28;16.77;;;1.80;99.90;;;;;;4957795;28;20130;-66
2024/01/13 11:10:14;;;;;;;48.33;17.10;;;1.70;99.90;;;;;;4957717;28;20570;-66
2024/01/13 11:12:50;;;;;;;50.85;17.10;;;2.20;99.90;;;;;;4978860;28;20026;-66
2024/01/13 11:15:31;;;;;;;51.00;16.80;;;2.70;99.90;;;;;;4978706;28;20073;-66
2024/01/13 11:18:00;;;;;;;49.30;17.73;;;2.90;99.90;;;;;;4978781;28;20035;-65
2024/01/13 11:20:26;;;;;;;49.90;17.65;;;2.90;99.90;;;;;;4962028;28;20125;-66
2024/01/13 11:22:59;;;;;;;49.30;17.90;;;3.30;99.90;;;;;;4961606;28;20069;-66
2024/01/13 11:25:30;;;;;;;45.40;16.83;;;3.50;99.90;;;;;;4978591;28;20027;-66
2024/01/13 11:28:00;;;;;;;40.97;15.38;;;3.70;99.90;;;;;;4978389;28;20034;-66
2024/01/13 11:30:39;;;;;;;48.85;17.13;;;3.50;99.90;;;;;;4978714;28;20122;-66
2024/01/13 11:33:10;;;;;;;51.63;17.58;;;3.30;99.90;;;;;;4961456;28;20026;-66
2024/01/13 11:35:38;;;;;;;46.95;19.33;;;3.50;99.90;;;;;;4961662;28;20038;-66
2024/01/13 11:38:07;;;;;;;49.80;18.50;;;3.80;99.90;;;;;;4962007;28;20031;-66
2024/01/13 11:40:34;;;;;;;50.40;18.05;;;4.40;99.60;;;;;;4979056;28;20038;-66
2024/01/13 11:43:01;;;;;;;48.88;18.77;;;4.90;97.90;;;;;;4978882;28;20058;-66
2024/01/13 11:45:40;;;;;;;48.10;19.08;;;5.10;96.80;;;;;;4961727;28;20426;-67
2024/01/13 11:48:41;;;;;;;48.33;18.25;;;5.20;95.80;;;;;;4961681;28;20031;-67
2024/01/13 11:51:13;;;;;;;52.47;19.92;;;5.50;95.10;;;;;;4978362;28;20390;-67
2024/01/13 11:53:43;;;;;;;43.85;18.83;;;5.40;95.30;;;;;;4978641;28;20031;-67
2024/01/13 11:56:11;;;;;;;48.58;19.77;;;5.70;93.90;;;;;;4960946;28;20479;-66
2024/01/13 11:58:38;;;;;;;59.13;20.80;;;5.70;94.10;;;;;;4960856;28;20138;-66
2024/01/13 12:01:09;;;;;;;49.65;20.13;;;5.60;94.20;;;;;;4978244;28;20031;-66
2024/01/13 12:03:35;;;;;;;44.67;18.80;;;5.80;94.30;;;;;;4960546;28;20078;-66
2024/01/13 12:06:03;;;;;;;49.47;19.75;;;6.40;92.50;;;;;;4978131;28;20077;-66
2024/01/13 12:08:29;;;;;;;46.65;19.63;;;6.70;91.80;;;;;;4960741;28;20054;-66
2024/01/13 12:10:55;;;;;;;43.80;18.17;;;7.30;90.90;;;;;;4960415;28;20073;-67
2024/01/13 12:13:22;;;;;;;43.08;19.33;;;7.50;88.90;;;;;;4977168;28;20027;-66
2024/01/13 12:15:48;;;;;;;44.35;19.67;;;7.10;88.30;;;;;;4960030;28;20035;-65
2024/01/13 12:18:18;;;;;;;43.45;20.65;;;7.60;89.00;;;;;;4960732;28;20026;-65
2024/01/13 12:21:04;;;;;;;44.80;19.50;;;7.40;86.10;;;;;;4977847;28;20410;-67
2024/01/13 12:23:30;;;;;;;43.80;18.80;;;7.40;86.60;;;;;;4977008;28;20097;-65
2024/01/13 12:25:56;;;;;;;49.33;19.85;;;7.60;84.80;;;;;;4960169;28;20046;-65